Time;durP1;ratioP1;P1;durP2;ratioP2;P2;SDS_P1;SDS_P2;PMS_P1;PMS_P2;Temp;Humidity;BMP_temperature;BMP_pressure;BME280_temperature;BME280_humidity;BME280_pressure;Samples;Min_cycle;Max_cycle;Signal;HPM_P1;HPM_P2
2022/07/16 00:01:48;;;;;;;1.00;0.65;;;15.90;99.90;;;;;;5020115;28;20549;-58
2022/07/16 00:04:14;;;;;;;1.30;0.45;;;15.90;99.90;;;;;;5035344;28;20173;-58
2022/07/16 00:06:39;;;;;;;0.63;0.60;;;15.90;99.90;;;;;;5034977;28;20180;-59
2022/07/16 00:09:05;;;;;;;0.77;0.60;;;15.90;99.90;;;;;;5017068;28;20702;-58
2022/07/16 00:11:31;;;;;;;0.57;0.57;;;15.80;99.90;;;;;;5034778;28;20223;-58
2022/07/16 00:13:57;;;;;;;0.50;0.50;;;15.80;99.90;;;;;;5034907;28;20179;-58
2022/07/16 00:16:22;;;;;;;0.80;0.60;;;15.80;99.90;;;;;;5034661;28;20533;-58
2022/07/16 00:21:32;;;;;;;0.55;0.50;;;15.70;99.90;;;;;;5034899;28;20302;-57
2022/07/16 00:23:58;;;;;;;0.43;0.43;;;15.60;99.90;;;;;;5034470;28;20641;-58
2022/07/16 00:26:24;;;;;;;0.45;0.40;;;15.60;99.90;;;;;;5034480;28;20187;-58
2022/07/16 00:28:50;;;;;;;0.50;0.50;;;15.60;99.90;;;;;;5034600;28;20183;-58
2022/07/16 00:31:15;;;;;;;0.55;0.55;;;15.70;99.90;;;;;;5034441;28;20203;-58
2022/07/16 00:33:41;;;;;;;0.57;0.57;;;15.70;99.90;;;;;;5034358;28;20546;-58
2022/07/16 00:36:07;;;;;;;0.63;0.50;;;15.70;99.90;;;;;;5034348;28;20183;-59
2022/07/16 00:38:33;;;;;;;0.45;0.43;;;15.80;99.90;;;;;;5034179;28;20603;-58
2022/07/16 00:40:58;;;;;;;0.65;0.45;;;15.80;99.90;;;;;;5016643;28;20180;-58
2022/07/16 00:43:24;;;;;;;0.60;0.60;;;15.90;99.90;;;;;;5034158;28;20203;-58
2022/07/16 00:45:50;;;;;;;0.88;0.57;;;15.90;99.90;;;;;;5016713;28;20176;-58
2022/07/16 00:48:16;;;;;;;0.50;0.50;;;15.90;99.90;;;;;;5034124;28;20200;-59
2022/07/16 00:50:42;;;;;;;0.95;0.88;;;15.90;99.90;;;;;;5033870;28;20637;-58
2022/07/16 00:53:09;;;;;;;0.40;0.40;;;15.90;99.90;;;;;;5033951;28;20180;-58
2022/07/16 00:55:35;;;;;;;0.95;0.68;;;15.90;99.90;;;;;;5034371;28;20176;-58
2022/07/16 00:58:01;;;;;;;0.45;0.45;;;15.90;99.90;;;;;;5034031;28;20225;-58
2022/07/16 01:00:27;;;;;;;0.60;0.50;;;16.00;99.90;;;;;;5033848;28;20214;-58
2022/07/16 01:02:53;;;;;;;0.60;0.60;;;15.90;99.90;;;;;;5016240;28;20190;-59
2022/07/16 01:05:19;;;;;;;2.30;0.77;;;15.90;99.90;;;;;;5016160;28;20176;-58
2022/07/16 01:07:45;;;;;;;0.80;0.60;;;16.00;99.90;;;;;;5034252;28;20221;-59
2022/07/16 01:10:11;;;;;;;0.57;0.50;;;15.90;99.90;;;;;;5015966;28;20653;-58
2022/07/16 01:12:38;;;;;;;0.40;0.40;;;15.90;99.90;;;;;;5033766;28;20204;-58
2022/07/16 01:15:04;;;;;;;0.50;0.50;;;15.70;99.90;;;;;;5033830;28;20254;-58
2022/07/16 01:17:31;;;;;;;0.98;0.50;;;15.70;99.90;;;;;;5033698;28;20203;-58
2022/07/16 01:19:56;;;;;;;0.50;0.50;;;15.70;99.90;;;;;;5033564;28;20176;-59
2022/07/16 01:22:24;;;;;;;1.15;1.00;;;15.60;99.90;;;;;;5034008;28;20180;-57
2022/07/16 01:24:50;;;;;;;0.95;0.60;;;15.50;99.90;;;;;;5033705;28;20168;-59
2022/07/16 01:27:18;;;;;;;0.85;0.70;;;15.60;99.90;;;;;;5033569;28;20176;-59
2022/07/16 01:29:44;;;;;;;0.75;0.50;;;15.50;99.90;;;;;;5033474;28;20172;-59
2022/07/16 01:32:09;;;;;;;0.70;0.70;;;15.50;99.90;;;;;;5033285;28;20534;-55
2022/07/16 01:34:36;;;;;;;0.73;0.60;;;15.50;99.90;;;;;;5015860;28;20547;-58
2022/07/16 01:37:09;;;;;;;1.23;0.75;;;15.50;99.90;;;;;;5033429;28;20180;-58
2022/07/16 01:39:38;;;;;;;0.50;0.50;;;15.50;99.90;;;;;;5033489;28;20176;-57
2022/07/16 01:42:06;;;;;;;0.50;0.50;;;15.50;99.90;;;;;;5033282;28;20172;-58
2022/07/16 01:44:35;;;;;;;0.70;0.70;;;15.50;99.90;;;;;;5033319;28;20183;-58
2022/07/16 01:47:03;;;;;;;1.23;0.60;;;15.30;99.90;;;;;;5033149;28;20625;-58
2022/07/16 01:49:33;;;;;;;0.57;0.57;;;15.30;99.90;;;;;;5033712;28;20255;-58
2022/07/16 01:52:05;;;;;;;0.63;0.60;;;15.40;99.90;;;;;;5033354;28;20564;-58
2022/07/16 01:54:31;;;;;;;0.57;0.57;;;15.60;99.90;;;;;;5033515;28;20179;-58
2022/07/16 01:56:57;;;;;;;0.52;0.50;;;15.70;99.90;;;;;;5035747;28;20188;-58
2022/07/16 01:59:22;;;;;;;0.57;0.55;;;15.70;99.90;;;;;;5019665;28;20176;-58
2022/07/16 02:01:48;;;;;;;0.90;0.50;;;15.70;99.90;;;;;;5037103;28;20522;-58
2022/07/16 02:04:13;;;;;;;0.60;0.40;;;15.60;99.90;;;;;;5019751;28;20568;-59
2022/07/16 02:06:39;;;;;;;1.05;0.50;;;15.60;99.90;;;;;;5037279;28;20215;-58
2022/07/16 02:09:05;;;;;;;0.50;0.50;;;15.60;99.90;;;;;;5019552;28;20180;-58
2022/07/16 02:11:34;;;;;;;0.70;0.68;;;15.60;99.90;;;;;;5019533;28;20219;-58
2022/07/16 02:14:00;;;;;;;0.77;0.57;;;15.50;99.90;;;;;;5037012;28;20234;-58
2022/07/16 02:16:25;;;;;;;1.65;0.50;;;15.50;99.90;;;;;;5019156;28;20184;-58
2022/07/16 02:18:51;;;;;;;1.25;0.68;;;15.50;99.90;;;;;;5036859;28;20176;-59
2022/07/16 02:21:17;;;;;;;0.50;0.50;;;15.50;99.90;;;;;;5019457;28;20191;-58
2022/07/16 02:23:42;;;;;;;0.65;0.50;;;15.50;99.90;;;;;;5002921;28;20168;-58
2022/07/16 02:26:08;;;;;;;0.70;0.60;;;15.50;99.90;;;;;;5036836;28;20180;-58
2022/07/16 02:28:34;;;;;;;0.57;0.43;;;15.50;99.90;;;;;;5036749;28;20180;-57
2022/07/16 02:30:59;;;;;;;0.45;0.45;;;15.50;99.90;;;;;;5036566;28;20168;-58
2022/07/16 02:33:25;;;;;;;0.57;0.57;;;15.50;99.90;;;;;;5019140;28;20257;-58
2022/07/16 02:35:51;;;;;;;0.70;0.60;;;15.50;99.90;;;;;;5019171;28;20191;-58
2022/07/16 02:38:17;;;;;;;0.60;0.60;;;15.40;99.90;;;;;;5019068;28;20179;-58
2022/07/16 02:40:43;;;;;;;0.60;0.60;;;15.30;99.90;;;;;;5036505;28;20184;-58
2022/07/16 02:43:10;;;;;;;0.50;0.50;;;15.30;99.90;;;;;;5036446;28;20314;-58
2022/07/16 02:45:40;;;;;;;0.47;0.47;;;15.20;99.90;;;;;;5036290;28;20176;-58
2022/07/16 02:48:07;;;;;;;0.80;0.80;;;15.20;99.90;;;;;;5036535;28;20178;-58
2022/07/16 02:50:33;;;;;;;1.55;0.60;;;15.00;99.90;;;;;;5036389;28;20172;-59
2022/07/16 02:53:00;;;;;;;0.98;0.70;;;15.00;99.90;;;;;;5036233;28;20199;-59
2022/07/16 02:55:26;;;;;;;0.80;0.80;;;14.90;99.90;;;;;;5036299;28;20180;-59
2022/07/16 02:57:52;;;;;;;0.80;0.80;;;14.90;99.90;;;;;;5018508;28;20534;-59
2022/07/16 03:00:18;;;;;;;3.25;0.60;;;14.90;99.90;;;;;;5018593;28;20180;-59
2022/07/16 03:02:44;;;;;;;0.65;0.65;;;14.90;99.90;;;;;;5018803;28;20176;-59
2022/07/16 03:05:11;;;;;;;0.95;0.88;;;15.00;99.90;;;;;;5036007;28;20183;-57
2022/07/16 03:07:37;;;;;;;0.93;0.80;;;14.90;99.90;;;;;;5036040;28;20241;-58
2022/07/16 03:10:04;;;;;;;0.60;0.60;;;14.80;99.90;;;;;;5035950;28;20188;-58
2022/07/16 03:12:30;;;;;;;0.40;0.40;;;14.70;99.90;;;;;;5018099;28;20684;-58
2022/07/16 03:14:57;;;;;;;0.70;0.70;;;14.70;99.90;;;;;;5036083;28;20183;-59
2022/07/16 03:17:23;;;;;;;0.68;0.65;;;14.70;99.90;;;;;;5035724;28;20184;-58
2022/07/16 03:19:48;;;;;;;0.77;0.77;;;14.70;99.90;;;;;;5035916;28;20171;-59
2022/07/16 03:22:16;;;;;;;0.80;0.60;;;14.70;99.90;;;;;;5035838;28;20176;-58
2022/07/16 03:24:41;;;;;;;0.80;0.60;;;14.60;99.90;;;;;;5035658;28;20188;-58
2022/07/16 03:27:07;;;;;;;0.90;0.70;;;14.50;99.90;;;;;;5035605;28;20561;-58
2022/07/16 03:29:33;;;;;;;1.13;0.80;;;14.50;99.90;;;;;;5001763;28;20275;-59
2022/07/16 03:31:58;;;;;;;0.80;0.80;;;14.50;99.90;;;;;;5035508;28;20218;-58
2022/07/16 03:34:27;;;;;;;0.60;0.60;;;14.50;99.90;;;;;;5017913;28;20226;-58
2022/07/16 03:36:53;;;;;;;0.80;0.80;;;14.50;99.90;;;;;;5018296;28;20178;-58
2022/07/16 03:39:19;;;;;;;0.65;0.65;;;14.60;99.90;;;;;;5035609;28;20263;-59
2022/07/16 03:41:44;;;;;;;0.75;0.63;;;14.60;99.90;;;;;;5017577;28;20180;-59
2022/07/16 03:44:12;;;;;;;1.00;0.68;;;14.60;99.90;;;;;;5035251;28;20621;-59
2022/07/16 03:46:38;;;;;;;0.70;0.70;;;14.60;99.90;;;;;;5017680;28;20180;-58
2022/07/16 03:49:04;;;;;;;0.63;0.63;;;14.60;99.90;;;;;;5035163;28;20179;-59
2022/07/16 03:51:31;;;;;;;1.13;1.02;;;14.60;99.90;;;;;;5017685;28;20199;-58
2022/07/16 03:53:56;;;;;;;1.17;0.95;;;14.60;99.90;;;;;;5017619;28;20176;-59
2022/07/16 03:56:24;;;;;;;1.15;1.05;;;14.60;99.90;;;;;;5000964;28;20271;-57
2022/07/16 03:58:50;;;;;;;1.20;1.05;;;14.60;99.90;;;;;;5017833;28;20263;-58
2022/07/16 04:01:16;;;;;;;0.82;0.80;;;14.60;99.90;;;;;;5017589;28;20180;-58
2022/07/16 04:03:41;;;;;;;1.73;0.95;;;14.60;99.90;;;;;;5017640;28;20183;-59
2022/07/16 04:06:07;;;;;;;1.52;1.02;;;14.50;99.90;;;;;;5034996;28;20507;-59
2022/07/16 04:08:33;;;;;;;2.53;1.10;;;14.60;99.90;;;;;;5017128;28;20697;-58
2022/07/16 04:11:00;;;;;;;0.93;0.85;;;14.60;99.90;;;;;;5035005;28;20192;-58
2022/07/16 04:13:25;;;;;;;1.00;0.90;;;14.60;99.90;;;;;;5035171;28;20185;-58
2022/07/16 04:15:51;;;;;;;1.17;0.98;;;14.70;99.90;;;;;;5017130;28;20176;-58
2022/07/16 04:18:17;;;;;;;1.17;0.98;;;14.70;99.90;;;;;;5034248;28;20534;-58
2022/07/16 04:20:42;;;;;;;0.80;0.80;;;14.70;99.90;;;;;;5034406;28;20203;-59
2022/07/16 04:23:08;;;;;;;1.58;1.00;;;14.70;99.90;;;;;;5034860;28;20186;-58
2022/07/16 04:25:34;;;;;;;1.00;0.90;;;14.70;99.90;;;;;;5016895;28;20544;-57
2022/07/16 04:27:59;;;;;;;1.25;0.98;;;14.80;99.90;;;;;;5034521;28;20178;-59
2022/07/16 04:30:25;;;;;;;1.00;0.90;;;14.90;99.90;;;;;;5016871;28;20184;-58
2022/07/16 04:32:51;;;;;;;1.15;1.05;;;15.00;99.90;;;;;;5016791;28;20290;-58
2022/07/16 04:35:18;;;;;;;1.10;0.80;;;15.10;99.90;;;;;;5034299;28;20168;-58
2022/07/16 04:37:44;;;;;;;2.05;1.27;;;15.20;99.90;;;;;;5016656;28;20222;-59
2022/07/16 04:40:11;;;;;;;1.23;0.95;;;15.30;99.90;;;;;;5034080;28;20187;-58
2022/07/16 04:42:39;;;;;;;1.95;1.30;;;15.30;99.90;;;;;;5034338;28;20204;-58
2022/07/16 04:45:05;;;;;;;1.17;0.98;;;15.30;99.90;;;;;;5034259;28;20176;-58
2022/07/16 04:47:31;;;;;;;1.60;1.10;;;15.40;99.90;;;;;;5016664;28;20695;-58
2022/07/16 04:49:57;;;;;;;1.75;1.17;;;15.40;99.90;;;;;;5034186;28;20283;-58
2022/07/16 04:52:22;;;;;;;1.20;1.10;;;15.40;99.90;;;;;;5016306;28;20576;-58
2022/07/16 04:54:48;;;;;;;1.10;1.00;;;15.40;99.90;;;;;;5016640;28;20260;-58
2022/07/16 04:57:14;;;;;;;1.60;0.98;;;15.40;99.90;;;;;;5034113;28;20180;-58
2022/07/16 04:59:39;;;;;;;1.33;1.15;;;15.40;99.90;;;;;;5033842;28;20172;-59
2022/07/16 05:04:49;;;;;;;1.20;1.10;;;15.50;99.90;;;;;;5034089;28;20187;-58
2022/07/16 05:07:15;;;;;;;1.70;1.00;;;15.70;99.90;;;;;;5033707;28;20172;-58
2022/07/16 05:09:40;;;;;;;1.20;1.10;;;15.80;99.90;;;;;;5016068;28;20200;-61
2022/07/16 05:12:06;;;;;;;0.93;0.80;;;15.90;99.90;;;;;;5033609;28;20257;-61
2022/07/16 05:14:32;;;;;;;0.98;0.90;;;16.00;99.90;;;;;;4999721;28;20191;-61
2022/07/16 05:16:58;;;;;;;0.70;0.60;;;16.10;99.90;;;;;;5033699;28;20183;-61
2022/07/16 05:19:24;;;;;;;0.80;0.77;;;16.30;99.90;;;;;;5016076;28;20180;-61
2022/07/16 05:21:50;;;;;;;0.95;0.75;;;16.40;99.90;;;;;;5033554;28;20180;-61
2022/07/16 05:24:15;;;;;;;0.98;0.75;;;16.50;99.90;;;;;;5033448;28;20176;-61
2022/07/16 05:26:41;;;;;;;0.80;0.75;;;16.60;99.90;;;;;;5033608;28;20172;-61
2022/07/16 05:29:07;;;;;;;1.10;0.73;;;16.70;99.90;;;;;;5015793;28;20222;-57
2022/07/16 05:31:33;;;;;;;1.10;1.00;;;16.80;99.90;;;;;;5014542;28;20214;-60
2022/07/16 05:33:58;;;;;;;0.50;0.50;;;16.90;99.90;;;;;;5033395;28;20179;-58
2022/07/16 05:36:24;;;;;;;0.85;0.82;;;17.00;99.90;;;;;;5033272;28;20176;-59
2022/07/16 05:38:50;;;;;;;0.75;0.60;;;17.00;99.90;;;;;;5015939;28;20222;-60
2022/07/16 05:41:16;;;;;;;0.60;0.60;;;17.10;99.90;;;;;;5033491;28;20222;-60
2022/07/16 05:43:41;;;;;;;1.33;1.00;;;17.20;99.90;;;;;;5033137;28;20227;-60
2022/07/16 05:46:07;;;;;;;0.60;0.60;;;17.20;99.90;;;;;;5015589;28;20176;-60
2022/07/16 05:48:32;;;;;;;1.42;0.77;;;17.30;99.90;;;;;;5033179;28;20203;-60
2022/07/16 05:50:58;;;;;;;0.50;0.50;;;17.30;99.90;;;;;;5032991;28;20221;-60
2022/07/16 05:53:24;;;;;;;0.88;0.50;;;17.40;99.90;;;;;;5015735;28;20202;-60
2022/07/16 05:55:49;;;;;;;0.60;0.60;;;17.50;99.90;;;;;;5015636;28;20179;-59
2022/07/16 05:58:15;;;;;;;0.65;0.57;;;17.60;99.90;;;;;;5033040;28;20214;-62
2022/07/16 06:00:41;;;;;;;0.63;0.63;;;17.60;99.90;;;;;;5033037;28;20172;-58
2022/07/16 06:03:07;;;;;;;0.88;0.43;;;17.70;99.90;;;;;;5033360;28;20176;-59
2022/07/16 06:05:33;;;;;;;0.68;0.40;;;17.70;99.90;;;;;;5015427;28;20259;-60
2022/07/16 06:07:59;;;;;;;0.63;0.52;;;17.70;99.90;;;;;;5015584;28;20258;-60
2022/07/16 06:10:25;;;;;;;0.50;0.40;;;17.70;99.90;;;;;;5032678;28;20704;-59
2022/07/16 06:12:50;;;;;;;0.35;0.35;;;17.80;99.90;;;;;;5033092;28;20290;-61
2022/07/16 06:15:16;;;;;;;0.65;0.50;;;17.90;99.90;;;;;;5031753;28;20629;-59
2022/07/16 06:17:42;;;;;;;0.40;0.40;;;17.90;99.90;;;;;;5014542;28;20195;-59
2022/07/16 06:20:09;;;;;;;0.75;0.75;;;18.00;99.90;;;;;;5032669;28;20202;-59
2022/07/16 06:22:35;;;;;;;0.60;0.60;;;18.00;99.90;;;;;;4998928;28;20184;-59
2022/07/16 06:25:02;;;;;;;0.30;0.30;;;18.00;99.90;;;;;;5015351;28;20176;-59
2022/07/16 06:27:27;;;;;;;0.30;0.30;;;18.20;99.90;;;;;;5032741;28;20673;-60
2022/07/16 06:29:53;;;;;;;0.38;0.38;;;18.20;99.90;;;;;;5032690;28;20263;-59
2022/07/16 06:32:19;;;;;;;0.30;0.30;;;18.30;99.90;;;;;;5032783;28;20215;-59
2022/07/16 06:34:45;;;;;;;0.20;0.20;;;18.60;99.90;;;;;;5032983;28;20242;-59
2022/07/16 06:37:10;;;;;;;0.43;0.40;;;18.70;99.90;;;;;;5032898;28;20233;-60
2022/07/16 06:39:38;;;;;;;0.30;0.30;;;18.80;99.90;;;;;;5032462;28;20179;-60
2022/07/16 06:42:04;;;;;;;0.20;0.20;;;19.00;99.90;;;;;;5033806;28;20211;-60
2022/07/16 06:44:30;;;;;;;0.30;0.25;;;19.00;99.90;;;;;;5036173;28;20697;-60
2022/07/16 06:46:55;;;;;;;0.30;0.30;;;19.00;99.90;;;;;;5018560;28;20180;-60
2022/07/16 06:49:21;;;;;;;1.02;0.70;;;18.90;99.90;;;;;;5036146;28;20633;-60
2022/07/16 06:51:47;;;;;;;0.30;0.30;;;18.90;99.90;;;;;;5036278;28;20211;-60
2022/07/16 06:54:12;;;;;;;0.40;0.40;;;19.10;99.90;;;;;;5018762;28;20171;-60
2022/07/16 06:56:38;;;;;;;0.52;0.52;;;19.50;99.90;;;;;;5035984;28;20191;-61
2022/07/16 06:59:04;;;;;;;0.57;0.57;;;19.80;99.90;;;;;;5036074;28;20187;-59
2022/07/16 07:01:29;;;;;;;0.28;0.28;;;19.70;99.90;;;;;;5018499;28;20267;-59
2022/07/16 07:03:55;;;;;;;0.30;0.30;;;19.80;99.90;;;;;;5035858;28;20199;-60
2022/07/16 07:06:21;;;;;;;0.60;0.52;;;19.90;99.90;;;;;;5034750;28;20176;-56
2022/07/16 07:08:47;;;;;;;1.98;0.55;;;19.70;99.90;;;;;;5035126;28;20584;-60
2022/07/16 07:11:12;;;;;;;0.95;0.85;;;19.60;99.90;;;;;;5018034;28;20657;-60
2022/07/16 07:13:38;;;;;;;0.45;0.45;;;19.60;99.90;;;;;;5035639;28;20171;-60
2022/07/16 07:16:05;;;;;;;0.57;0.55;;;19.50;99.90;;;;;;5035584;28;20172;-59
2022/07/16 07:18:32;;;;;;;0.50;0.50;;;19.50;99.90;;;;;;5035256;28;20179;-59
2022/07/16 07:20:59;;;;;;;1.13;0.70;;;19.50;99.90;;;;;;5035665;28;20187;-60
2022/07/16 07:23:25;;;;;;;0.57;0.57;;;19.50;99.90;;;;;;5018043;28;20188;-60
2022/07/16 07:25:51;;;;;;;0.70;0.55;;;19.50;99.90;;;;;;5017777;28;20584;-60
2022/07/16 07:28:17;;;;;;;0.60;0.60;;;19.40;99.90;;;;;;5035496;28;20168;-59
2022/07/16 07:30:43;;;;;;;0.70;0.63;;;19.20;99.90;;;;;;5035410;28;20527;-59
2022/07/16 07:33:09;;;;;;;0.85;0.63;;;19.30;99.90;;;;;;5035310;28;20199;-60
2022/07/16 07:35:35;;;;;;;0.95;0.60;;;19.30;99.90;;;;;;5035106;28;20587;-60
2022/07/16 07:38:01;;;;;;;0.80;0.60;;;19.20;99.90;;;;;;5035058;28;20192;-60
2022/07/16 07:40:27;;;;;;;0.60;0.60;;;19.30;99.90;;;;;;5034973;28;20183;-59
2022/07/16 07:42:54;;;;;;;0.50;0.50;;;19.50;99.90;;;;;;5001260;28;20180;-59
2022/07/16 07:45:20;;;;;;;0.52;0.52;;;19.60;99.90;;;;;;5017760;28;20183;-60
2022/07/16 07:47:46;;;;;;;0.80;0.63;;;19.40;99.90;;;;;;5035059;28;20215;-60
2022/07/16 07:50:13;;;;;;;0.90;0.55;;;19.20;99.90;;;;;;5034826;28;20176;-60
2022/07/16 07:52:39;;;;;;;1.10;0.50;;;19.30;99.90;;;;;;5034570;28;20242;-58
2022/07/16 07:55:05;;;;;;;0.75;0.60;;;19.50;99.90;;;;;;5032887;28;20207;-59
2022/07/16 07:57:31;;;;;;;2.05;0.50;;;19.60;99.90;;;;;;5017459;28;20219;-60
2022/07/16 07:59:56;;;;;;;0.52;0.52;;;19.90;99.90;;;;;;5034926;28;20267;-59
2022/07/16 08:02:22;;;;;;;0.40;0.40;;;20.40;99.90;;;;;;5017339;28;20182;-59
2022/07/16 08:04:48;;;;;;;0.77;0.50;;;20.70;99.90;;;;;;5035109;28;20634;-59
2022/07/16 08:07:13;;;;;;;0.40;0.40;;;21.00;99.90;;;;;;5034875;28;20175;-60
2022/07/16 08:09:39;;;;;;;0.47;0.47;;;21.20;99.90;;;;;;5017483;28;20249;-60
2022/07/16 08:12:05;;;;;;;0.95;0.80;;;21.40;99.90;;;;;;5017236;28;20542;-59
2022/07/16 08:14:31;;;;;;;0.50;0.50;;;21.00;99.90;;;;;;5017047;28;20180;-59
2022/07/16 08:16:58;;;;;;;1.35;0.65;;;20.90;99.90;;;;;;5034962;28;20172;-59
2022/07/16 08:19:24;;;;;;;0.82;0.82;;;21.00;99.90;;;;;;5017425;28;20549;-60
2022/07/16 08:21:50;;;;;;;0.52;0.52;;;21.20;99.90;;;;;;5034788;28;20242;-60
2022/07/16 08:27:01;;;;;;;0.57;0.57;;;21.60;99.90;;;;;;5019877;28;20191;-60
2022/07/16 08:29:26;;;;;;;0.70;0.70;;;21.70;99.90;;;;;;5034461;28;20529;-61
2022/07/16 08:31:52;;;;;;;0.60;0.60;;;22.10;99.90;;;;;;5034517;28;20211;-59
2022/07/16 08:34:22;;;;;;;0.40;0.40;;;22.30;99.40;;;;;;5034528;28;20203;-59
2022/07/16 08:36:49;;;;;;;0.30;0.30;;;22.60;99.00;;;;;;5034377;28;20198;-60
2022/07/16 08:39:16;;;;;;;0.40;0.40;;;22.50;98.60;;;;;;5034419;28;20235;-60
2022/07/16 08:41:43;;;;;;;0.60;0.60;;;22.70;99.00;;;;;;5034458;28;20172;-59
2022/07/16 08:44:13;;;;;;;0.20;0.20;;;22.70;98.50;;;;;;5034462;28;20196;-60
2022/07/16 08:46:40;;;;;;;0.30;0.30;;;22.00;98.10;;;;;;5034372;28;20172;-60
2022/07/16 08:49:05;;;;;;;0.43;0.43;;;21.60;98.20;;;;;;5016485;28;20183;-60
2022/07/16 08:51:34;;;;;;;1.05;0.57;;;21.90;99.20;;;;;;5034121;28;20196;-60
2022/07/16 08:54:06;;;;;;;0.60;0.60;;;22.30;98.70;;;;;;5034069;28;20179;-60
2022/07/16 08:56:33;;;;;;;0.68;0.45;;;22.20;98.90;;;;;;5033981;28;20172;-60
2022/07/16 08:59:01;;;;;;;0.77;0.60;;;22.20;98.50;;;;;;5034123;28;20179;-60
2022/07/16 09:01:29;;;;;;;0.70;0.70;;;21.90;98.60;;;;;;5034013;28;20647;-60
2022/07/16 09:03:57;;;;;;;0.40;0.40;;;21.70;99.00;;;;;;5033935;28;20168;-60
2022/07/16 09:06:22;;;;;;;0.85;0.45;;;21.50;99.40;;;;;;5033643;28;20176;-61
2022/07/16 09:08:48;;;;;;;0.60;0.60;;;21.20;99.30;;;;;;5033645;28;20187;-61
2022/07/16 09:11:25;;;;;;;0.65;0.60;;;21.20;99.50;;;;;;5033492;28;20194;-60
2022/07/16 09:14:10;;;;;;;0.40;0.40;;;21.20;99.10;;;;;;5033591;28;20182;-60
2022/07/16 09:16:39;;;;;;;0.57;0.50;;;21.30;99.30;;;;;;5033280;28;20175;-60
2022/07/16 09:19:20;;;;;;;0.90;0.40;;;21.60;98.40;;;;;;5033513;28;20176;-60
2022/07/16 09:22:10;;;;;;;0.95;0.50;;;21.70;98.10;;;;;;5033859;28;20521;-60
2022/07/16 09:24:52;;;;;;;0.50;0.50;;;21.90;96.50;;;;;;5015971;28;20593;-60
2022/07/16 09:27:26;;;;;;;0.50;0.50;;;22.00;96.90;;;;;;5033551;28;20182;-60
2022/07/16 09:29:58;;;;;;;0.43;0.43;;;22.40;96.60;;;;;;5033676;28;20184;-60
2022/07/16 09:32:32;;;;;;;1.00;0.32;;;22.70;95.60;;;;;;5033686;28;20334;-60
2022/07/16 09:35:05;;;;;;;0.50;0.30;;;22.70;95.40;;;;;;5033762;28;20188;-60
2022/07/16 09:37:59;;;;;;;0.38;0.38;;;22.40;93.90;;;;;;5033330;28;20183;-60
2022/07/16 09:40:44;;;;;;;0.40;0.40;;;21.80;94.40;;;;;;5012938;28;20192;-61
2022/07/16 09:43:15;;;;;;;0.60;0.50;;;21.90;95.20;;;;;;5033404;28;20254;-60
2022/07/16 09:45:46;;;;;;;0.47;0.40;;;22.20;94.50;;;;;;5033316;28;20172;-60
2022/07/16 09:48:22;;;;;;;0.30;0.30;;;22.20;94.70;;;;;;5033472;28;20176;-60
2022/07/16 09:50:48;;;;;;;0.40;0.40;;;21.80;94.60;;;;;;5033398;28;20191;-60
2022/07/16 09:53:15;;;;;;;0.55;0.50;;;22.20;94.60;;;;;;5033278;28;20207;-60
2022/07/16 09:55:55;;;;;;;0.30;0.30;;;22.80;94.30;;;;;;5033280;28;20176;-60
2022/07/16 09:58:21;;;;;;;0.30;0.30;;;23.10;92.70;;;;;;5015490;28;20238;-60
2022/07/16 10:00:47;;;;;;;0.20;0.20;;;23.40;93.10;;;;;;5033115;28;20177;-60
2022/07/16 10:03:14;;;;;;;1.08;0.43;;;23.70;92.20;;;;;;5016038;28;20522;-60
2022/07/16 10:05:40;;;;;;;0.50;0.50;;;23.70;92.80;;;;;;5033196;28;20222;-60
2022/07/16 10:08:06;;;;;;;0.32;0.28;;;23.70;92.60;;;;;;5033571;28;20176;-61
2022/07/16 10:10:32;;;;;;;0.38;0.30;;;23.90;92.90;;;;;;5015361;28;20652;-60
2022/07/16 10:12:58;;;;;;;0.28;0.28;;;24.20;91.50;;;;;;5033080;28;20665;-60
2022/07/16 10:15:24;;;;;;;1.45;0.30;;;24.40;91.80;;;;;;5015504;28;20176;-60
2022/07/16 10:17:49;;;;;;;0.43;0.30;;;24.20;91.80;;;;;;5035419;28;20173;-61
2022/07/16 10:20:19;;;;;;;0.30;0.30;;;23.30;92.70;;;;;;5003338;28;20215;-60
2022/07/16 10:22:50;;;;;;;0.28;0.28;;;23.30;92.30;;;;;;5036956;28;20182;-60
2022/07/16 10:25:25;;;;;;;0.43;0.40;;;23.30;92.50;;;;;;5019184;28;20172;-60
2022/07/16 10:27:53;;;;;;;0.88;0.47;;;23.50;92.10;;;;;;5036763;28;20629;-60
2022/07/16 10:30:22;;;;;;;1.30;0.30;;;23.60;92.60;;;;;;5036691;28;20572;-60
2022/07/16 10:32:59;;;;;;;0.20;0.20;;;23.70;92.50;;;;;;5036621;28;20348;-60
2022/07/16 10:35:37;;;;;;;0.30;0.30;;;23.80;92.40;;;;;;5036819;28;20217;-61
2022/07/16 10:38:14;;;;;;;0.30;0.30;;;23.70;91.80;;;;;;5036598;28;20184;-60
2022/07/16 10:40:42;;;;;;;0.30;0.30;;;24.00;91.80;;;;;;5036945;28;20203;-57
2022/07/16 10:43:16;;;;;;;0.30;0.30;;;24.20;90.20;;;;;;5036639;28;20262;-60
2022/07/16 10:45:54;;;;;;;0.63;0.40;;;24.50;90.20;;;;;;5018913;28;20175;-60
2022/07/16 10:48:24;;;;;;;0.63;0.40;;;24.50;90.60;;;;;;5036459;28;20163;-60
2022/07/16 10:51:14;;;;;;;0.30;0.30;;;24.60;91.10;;;;;;5036277;28;20200;-60
2022/07/16 10:53:58;;;;;;;0.75;0.35;;;24.90;90.60;;;;;;5036506;28;20211;-60
2022/07/16 10:56:46;;;;;;;0.30;0.25;;;24.90;89.10;;;;;;5018652;28;20576;-61
2022/07/16 10:59:19;;;;;;;0.30;0.30;;;24.90;89.50;;;;;;5018548;28;20168;-60
2022/07/16 11:01:51;;;;;;;0.47;0.30;;;24.80;89.80;;;;;;5036354;28;20208;-60
2022/07/16 11:04:31;;;;;;;0.30;0.22;;;24.40;90.00;;;;;;5036397;28;20172;-60
2022/07/16 11:06:58;;;;;;;0.75;0.30;;;24.40;90.60;;;;;;5036288;28;20222;-60
2022/07/16 11:09:30;;;;;;;0.40;0.40;;;24.20;89.70;;;;;;5036166;28;20643;-60
2022/07/16 11:12:15;;;;;;;0.40;0.40;;;24.20;90.50;;;;;;5018146;28;20283;-60
2022/07/16 11:14:43;;;;;;;0.10;0.10;;;24.50;90.00;;;;;;5036075;28;20184;-60
2022/07/16 11:17:09;;;;;;;0.30;0.30;;;24.60;88.30;;;;;;5036500;28;20234;-60
2022/07/16 11:19:37;;;;;;;0.85;0.30;;;24.20;87.40;;;;;;5035927;28;20175;-60
2022/07/16 11:22:03;;;;;;;0.85;0.30;;;24.20;88.40;;;;;;5035856;28;20253;-60
2022/07/16 11:24:29;;;;;;;0.43;0.30;;;24.10;89.70;;;;;;5035821;28;20231;-60
2022/07/16 11:26:56;;;;;;;1.08;0.40;;;24.20;89.20;;;;;;5035650;28;20274;-60
2022/07/16 11:29:24;;;;;;;0.20;0.20;;;24.40;89.60;;;;;;5035518;28;20176;-60
2022/07/16 11:31:51;;;;;;;0.88;0.35;;;24.70;90.30;;;;;;5035532;28;20246;-61
2022/07/16 11:34:18;;;;;;;0.60;0.40;;;24.90;88.50;;;;;;5018049;28;20172;-60
2022/07/16 11:36:49;;;;;;;1.00;0.45;;;24.70;89.60;;;;;;5035190;28;20206;-60
2022/07/16 11:39:20;;;;;;;0.57;0.40;;;24.20;87.40;;;;;;5035644;28;20176;-61
2022/07/16 11:41:48;;;;;;;0.22;0.22;;;24.00;89.00;;;;;;5035713;28;20622;-60
2022/07/16 11:44:19;;;;;;;0.30;0.30;;;24.20;90.20;;;;;;5035621;28;20533;-60
2022/07/16 11:46:51;;;;;;;0.28;0.28;;;24.60;90.30;;;;;;5035463;28;20160;-61
2022/07/16 11:49:27;;;;;;;0.30;0.30;;;25.10;89.40;;;;;;5035326;28;20176;-60
2022/07/16 11:51:55;;;;;;;0.60;0.60;;;25.10;90.10;;;;;;5035398;28;20234;-60
2022/07/16 11:54:22;;;;;;;0.35;0.22;;;25.00;90.00;;;;;;5032133;28;20192;-61
2022/07/16 11:56:48;;;;;;;0.35;0.25;;;25.00;88.90;;;;;;4992723;28;20195;-60
2022/07/16 11:59:25;;;;;;;0.40;0.40;;;24.80;90.10;;;;;;5017771;28;20188;-60
2022/07/16 12:02:06;;;;;;;0.57;0.20;;;24.60;88.50;;;;;;5035040;28;20250;-60
2022/07/16 12:04:36;;;;;;;0.82;0.40;;;24.60;88.80;;;;;;5035036;28;20167;-60
2022/07/16 12:07:04;;;;;;;0.30;0.30;;;24.60;86.10;;;;;;5034861;28;20171;-60
2022/07/16 12:09:36;;;;;;;0.40;0.40;;;24.80;87.40;;;;;;5034894;28;20191;-57
2022/07/16 12:12:04;;;;;;;0.30;0.30;;;25.00;88.30;;;;;;5017239;28;20235;-60
2022/07/16 12:14:46;;;;;;;0.60;0.30;;;25.10;87.50;;;;;;5035030;28;20196;-60
2022/07/16 12:17:27;;;;;;;0.20;0.20;;;25.30;86.60;;;;;;5017155;28;20539;-60
2022/07/16 12:20:17;;;;;;;0.35;0.35;;;25.30;87.10;;;;;;5034836;28;20176;-60
2022/07/16 12:22:49;;;;;;;0.98;0.50;;;25.30;87.00;;;;;;5035257;28;20179;-60
2022/07/16 12:25:16;;;;;;;0.82;0.40;;;25.50;86.30;;;;;;5035040;28;20172;-60
2022/07/16 12:27:54;;;;;;;0.20;0.20;;;24.90;86.10;;;;;;5035155;28;20180;-60
2022/07/16 12:30:32;;;;;;;0.47;0.40;;;25.00;87.30;;;;;;5034413;28;20164;-60
2022/07/16 12:32:59;;;;;;;0.30;0.30;;;24.90;87.40;;;;;;5034358;28;20553;-60
2022/07/16 12:35:37;;;;;;;0.20;0.20;;;25.10;87.20;;;;;;5034580;28;20310;-60
2022/07/16 12:38:03;;;;;;;0.30;0.30;;;24.80;87.30;;;;;;5034598;28;20171;-60
2022/07/16 12:40:30;;;;;;;0.52;0.40;;;24.30;86.60;;;;;;5033962;28;20180;-60
2022/07/16 12:42:56;;;;;;;0.40;0.40;;;24.60;87.10;;;;;;5016883;28;20184;-60
2022/07/16 12:45:21;;;;;;;0.28;0.28;;;24.90;86.20;;;;;;5034229;28;20532;-60
2022/07/16 12:47:48;;;;;;;0.30;0.30;;;25.00;86.90;;;;;;5034453;28;20190;-60
2022/07/16 12:50:13;;;;;;;0.32;0.32;;;25.00;84.90;;;;;;5034195;28;20168;-60
2022/07/16 12:52:39;;;;;;;0.20;0.20;;;25.10;85.30;;;;;;5000296;28;20542;-60
2022/07/16 13:00:35;;;;;;;0.38;0.38;;;24.50;84.90;;;;;;5019629;28;20194;-60
2022/07/16 13:03:02;;;;;;;0.40;0.40;;;24.70;86.50;;;;;;5033965;28;20250;-60
2022/07/16 13:05:28;;;;;;;1.27;0.40;;;25.00;86.40;;;;;;5033910;28;20250;-59